Time;durP1;ratioP1;P1;durP2;ratioP2;P2;SDS_P1;SDS_P2;PMS_P1;PMS_P2;Temp;Humidity;BMP_temperature;BMP_pressure;BME280_temperature;BME280_humidity;BME280_pressure;Samples;Min_cycle;Max_cycle;Signal;HPM_P1;HPM_P2
2021/01/02 00:00:49;;;;;;;44.00;12.30;;;3.10;99.90;;;;;;4889186;29;20634;-90
2021/01/02 00:03:24;;;;;;;22.60;9.97;;;3.00;99.90;;;;;;4889304;29;20196;-90
2021/01/02 00:06:08;;;;;;;24.53;10.03;;;3.00;99.90;;;;;;4888278;29;20184;-89
2021/01/02 00:08:38;;;;;;;23.30;9.97;;;3.10;99.90;;;;;;4888581;29;20181;-89
2021/01/02 00:11:23;;;;;;;21.17;9.47;;;3.20;99.90;;;;;;4885209;29;20213;-89
2021/01/02 00:14:14;;;;;;;23.47;10.70;;;3.30;99.90;;;;;;4886524;29;20200;-88
2021/01/02 00:17:08;;;;;;;20.03;9.47;;;3.40;99.90;;;;;;4886325;29;20192;-89
2021/01/02 00:19:47;;;;;;;21.40;9.83;;;3.50;99.90;;;;;;4886431;29;20185;-88
2021/01/02 00:22:32;;;;;;;20.60;9.47;;;3.60;99.90;;;;;;4884252;29;20272;-89
2021/01/02 00:25:02;;;;;;;21.40;9.50;;;3.60;99.90;;;;;;4886252;29;20193;-89
2021/01/02 00:27:43;;;;;;;25.10;10.87;;;3.60;99.90;;;;;;4885769;29;20657;-89
2021/01/02 00:30:15;;;;;;;23.03;10.07;;;3.60;99.90;;;;;;4886316;29;20207;-88
2021/01/02 00:32:56;;;;;;;23.20;10.37;;;3.60;99.90;;;;;;4885558;29;20220;-89
2021/01/02 00:35:23;;;;;;;20.63;10.23;;;3.60;99.90;;;;;;4886893;29;20180;-88
2021/01/02 00:38:06;;;;;;;21.80;9.80;;;3.70;99.90;;;;;;4885192;29;20188;-89
2021/01/02 00:40:34;;;;;;;23.60;10.77;;;3.70;99.90;;;;;;4886696;29;20240;-89
2021/01/02 00:42:59;;;;;;;21.10;9.57;;;3.70;99.90;;;;;;4886231;29;20208;-89
2021/01/02 00:45:28;;;;;;;22.57;10.40;;;3.60;99.90;;;;;;4886425;29;20181;-89
2021/01/02 00:47:54;;;;;;;20.83;10.53;;;3.60;99.90;;;;;;4885737;29;20185;-88
2021/01/02 00:50:22;;;;;;;21.87;10.20;;;3.60;99.90;;;;;;4886059;29;20709;-89
2021/01/02 00:52:53;;;;;;;26.40;10.73;;;3.60;99.90;;;;;;4886266;29;20256;-88
2021/01/02 00:55:25;;;;;;;25.20;11.50;;;3.60;99.90;;;;;;4885693;29;20181;-89
2021/01/02 00:58:28;;;;;;;24.20;10.77;;;3.60;99.90;;;;;;4883850;29;20181;-89
2021/01/02 01:01:25;;;;;;;25.73;10.63;;;3.50;99.90;;;;;;4877971;29;20181;-88
2021/01/02 01:04:28;;;;;;;23.40;10.60;;;3.50;99.90;;;;;;4894049;29;20197;-89
2021/01/02 01:06:59;;;;;;;23.23;10.70;;;3.50;99.90;;;;;;4894271;29;20283;-89
2021/01/02 01:09:26;;;;;;;23.20;10.47;;;3.40;99.90;;;;;;4895092;29;20181;-89
2021/01/02 01:11:55;;;;;;;19.83;9.73;;;3.40;99.90;;;;;;4895008;29;20204;-89
2021/01/02 01:14:22;;;;;;;21.27;9.83;;;3.40;99.90;;;;;;4895174;29;20184;-89
2021/01/02 01:16:57;;;;;;;21.90;10.20;;;3.40;99.90;;;;;;4894861;29;20248;-89
2021/01/02 01:19:26;;;;;;;19.97;10.13;;;3.40;99.90;;;;;;4889770;29;20184;-90
2021/01/02 01:21:58;;;;;;;21.20;10.53;;;3.40;99.90;;;;;;4885623;29;20201;-89
2021/01/02 01:24:41;;;;;;;23.60;10.27;;;3.50;99.90;;;;;;4884674;29;20228;-88
2021/01/02 01:27:15;;;;;;;24.53;10.07;;;3.30;99.90;;;;;;4886329;29;20177;-90
2021/01/02 01:29:46;;;;;;;19.93;9.07;;;3.40;99.90;;;;;;4886011;29;20287;-89
2021/01/02 01:32:15;;;;;;;17.53;8.90;;;3.40;99.90;;;;;;4887832;29;20217;-87
2021/01/02 01:34:46;;;;;;;21.27;9.53;;;3.40;99.90;;;;;;4887412;29;20181;-90
2021/01/02 01:37:15;;;;;;;22.50;10.13;;;3.40;99.90;;;;;;4886217;29;20180;-89
2021/01/02 01:39:49;;;;;;;20.53;9.83;;;3.30;99.90;;;;;;4885385;29;20181;-89
2021/01/02 01:42:16;;;;;;;19.83;10.20;;;3.30;99.90;;;;;;4885906;29;20228;-89
2021/01/02 01:44:52;;;;;;;19.47;9.43;;;3.30;99.90;;;;;;4886081;29;20268;-89
2021/01/02 01:47:23;;;;;;;19.60;8.90;;;3.40;99.90;;;;;;4887415;29;20184;-89
2021/01/02 01:50:25;;;;;;;20.77;8.77;;;3.40;99.90;;;;;;4886494;29;20205;-89
2021/01/02 01:52:51;;;;;;;17.27;7.97;;;3.40;99.90;;;;;;4883063;29;20208;-89
2021/01/02 01:55:30;;;;;;;19.57;8.53;;;3.40;99.90;;;;;;4887177;29;20672;-89
2021/01/02 01:58:15;;;;;;;20.97;9.67;;;3.40;99.90;;;;;;4884737;29;20565;-88
2021/01/02 02:00:50;;;;;;;22.13;8.77;;;3.40;99.90;;;;;;4883354;29;20181;-88
2021/01/02 02:03:23;;;;;;;21.97;8.90;;;3.40;99.90;;;;;;4883050;29;20204;-87
2021/01/02 02:05:53;;;;;;;20.10;8.90;;;3.40;99.90;;;;;;4899899;29;20181;-88
2021/01/02 02:08:39;;;;;;;22.47;9.67;;;3.40;99.90;;;;;;4884042;29;20275;-87
2021/01/02 02:11:05;;;;;;;23.10;9.37;;;3.40;99.90;;;;;;4886332;29;20263;-88
2021/01/02 02:13:49;;;;;;;20.03;9.30;;;3.50;99.90;;;;;;4886203;29;20193;-88
2021/01/02 02:16:21;;;;;;;21.03;9.20;;;3.50;99.90;;;;;;4886821;29;20588;-88
2021/01/02 02:18:56;;;;;;;18.17;8.80;;;3.50;99.90;;;;;;4887734;29;20663;-88
2021/01/02 02:21:27;;;;;;;18.07;8.23;;;3.50;99.90;;;;;;4888643;29;20188;-88
2021/01/02 02:23:59;;;;;;;22.37;9.27;;;3.50;99.90;;;;;;4888807;29;20224;-87
2021/01/02 02:26:34;;;;;;;20.07;8.63;;;3.50;99.90;;;;;;4887898;29;20189;-89
2021/01/02 02:29:02;;;;;;;22.73;9.50;;;3.50;99.90;;;;;;4904340;29;20603;-88
2021/01/02 02:31:28;;;;;;;21.90;8.97;;;3.50;99.90;;;;;;4887475;29;20217;-88
2021/01/02 02:33:59;;;;;;;20.67;8.53;;;3.50;99.90;;;;;;4888854;29;20263;-87
2021/01/02 02:36:27;;;;;;;22.83;9.40;;;3.50;99.90;;;;;;4888698;29;20177;-88
2021/01/02 02:38:53;;;;;;;20.70;9.40;;;3.30;99.90;;;;;;4888369;29;20178;-88
2021/01/02 02:41:23;;;;;;;20.37;9.20;;;3.20;99.90;;;;;;4889201;29;20181;-88
2021/01/02 02:43:53;;;;;;;21.07;10.33;;;3.10;99.90;;;;;;4888288;29;20201;-87
2021/01/02 02:46:21;;;;;;;20.07;9.13;;;3.10;99.90;;;;;;4887801;29;20181;-88
2021/01/02 02:48:51;;;;;;;21.37;8.70;;;3.20;99.90;;;;;;4889787;29;20211;-89
2021/01/02 02:51:20;;;;;;;15.73;7.40;;;3.30;99.90;;;;;;4889317;29;20274;-90
2021/01/02 02:53:49;;;;;;;18.10;9.00;;;3.40;99.90;;;;;;4889962;29;20296;-88
2021/01/02 02:56:15;;;;;;;16.73;8.00;;;3.40;99.90;;;;;;4888859;29;20204;-89
2021/01/02 02:58:41;;;;;;;18.13;7.47;;;3.40;99.90;;;;;;4888577;29;20646;-88
2021/01/02 03:01:06;;;;;;;14.83;6.83;;;3.50;99.90;;;;;;4889743;29;20178;-89
2021/01/02 03:03:32;;;;;;;16.23;6.70;;;3.50;99.90;;;;;;4889983;29;20790;-89
2021/01/02 03:05:59;;;;;;;14.57;6.77;;;3.50;99.90;;;;;;4888997;29;20205;-88
2021/01/02 03:08:25;;;;;;;13.63;6.90;;;3.50;99.90;;;;;;4890372;29;20637;-88
2021/01/02 03:10:52;;;;;;;14.10;6.63;;;3.50;99.90;;;;;;4891293;29;20213;-90
2021/01/02 03:13:18;;;;;;;15.00;7.03;;;3.60;99.90;;;;;;4891328;29;20205;-89
2021/01/02 03:15:43;;;;;;;13.80;6.50;;;3.60;99.90;;;;;;4890783;29;20185;-88
2021/01/02 03:18:10;;;;;;;13.23;6.63;;;3.60;99.90;;;;;;4890394;29;20181;-89
2021/01/02 03:20:36;;;;;;;13.20;6.27;;;3.60;99.90;;;;;;4890534;29;20185;-89
2021/01/02 03:23:02;;;;;;;15.43;7.03;;;3.50;99.90;;;;;;4889825;29;20209;-88
2021/01/02 03:25:28;;;;;;;13.40;6.83;;;3.50;99.90;;;;;;4890160;29;20189;-88
2021/01/02 03:27:54;;;;;;;12.80;6.20;;;3.50;99.90;;;;;;4878914;29;20580;-89
2021/01/02 03:30:21;;;;;;;11.93;5.80;;;3.40;99.90;;;;;;4872121;29;20213;-88
2021/01/02 03:32:47;;;;;;;13.13;6.83;;;3.50;99.90;;;;;;4871824;29;20209;-89
2021/01/02 07:05:42;;;;;;;19.70;9.70;;;2.50;99.90;;;;;;5697334;23;20231;-88
2021/01/02 07:08:41;;;;;;;22.90;10.50;;;2.50;99.90;;;;;;4904047;29;20200;-88
2021/01/02 07:11:34;;;;;;;21.57;10.60;;;2.60;99.90;;;;;;4904879;29;20205;-88
2021/01/02 07:14:09;;;;;;;26.13;10.50;;;2.60;99.90;;;;;;4929332;29;20180;-88
2021/01/02 07:16:35;;;;;;;21.83;11.07;;;2.40;99.90;;;;;;4901740;29;20204;-87
2021/01/02 07:19:03;;;;;;;23.77;11.23;;;2.50;99.90;;;;;;4898221;29;20199;-92
2021/01/02 07:22:21;;;;;;;21.93;10.23;;;2.50;99.90;;;;;;5622996;23;20207;-84
